sensor_id;sensor_type;location;lat;lon;timestamp;pressure;altitude;pressure_sealevel;temperature;humidity
7058;BME280;3570;43.080;25.628;2022-08-25T00:00:40;-20115.25;;;22.81;100.00
7058;BME280;3570;43.080;25.628;2022-08-25T00:03:25;-20111.63;;;22.68;100.00
7058;BME280;3570;43.080;25.628;2022-08-25T00:06:09;-20102.94;;;22.38;100.00
7058;BME280;3570;43.080;25.628;2022-08-25T00:08:53;-20098.88;;;22.24;100.00
7058;BME280;3570;43.080;25.628;2022-08-25T00:11:43;-20081.81;;;21.65;100.00
7058;BME280;3570;43.080;25.628;2022-08-25T00:14:35;-20076.75;;;21.47;100.00
7058;BME280;3570;43.080;25.628;2022-08-25T00:17:20;-20093.25;;;22.04;100.00
7058;BME280;3570;43.080;25.628;2022-08-25T00:20:05;-20104.69;;;22.44;100.00
7058;BME280;3570;43.080;25.628;2022-08-25T00:22:51;-20099.47;;;22.26;100.00
7058;BME280;3570;43.080;25.628;2022-08-25T00:25:34;-20118.84;;;22.93;100.00
7058;BME280;3570;43.080;25.628;2022-08-25T00:28:19;-20123.03;;;23.08;100.00
7058;BME280;3570;43.080;25.628;2022-08-25T00:31:04;-20114.81;;;22.79;100.00
7058;BME280;3570;43.080;25.628;2022-08-25T00:33:50;-20105.97;;;22.48;100.00
7058;BME280;3570;43.080;25.628;2022-08-25T00:36:36;-20109.88;;;22.62;100.00
7058;BME280;3570;43.080;25.628;2022-08-25T00:39:21;-20110.47;;;22.64;100.00
7058;BME280;3570;43.080;25.628;2022-08-25T00:42:07;-20113.22;;;22.74;100.00
7058;BME280;3570;43.080;25.628;2022-08-25T00:44:52;-20110.31;;;22.64;100.00
7058;BME280;3570;43.080;25.628;2022-08-25T00:47:36;-20106.41;;;22.50;100.00
7058;BME280;3570;43.080;25.628;2022-08-25T00:50:21;-20110.47;;;22.64;100.00
7058;BME280;3570;43.080;25.628;2022-08-25T00:53:06;-20115.81;;;22.83;100.00
7058;BME280;3570;43.080;25.628;2022-08-25T00:55:50;-20123.34;;;23.09;100.00
7058;BME280;3570;43.080;25.628;2022-08-25T00:58:34;-20123.03;;;23.08;100.00
7058;BME280;3570;43.080;25.628;2022-08-25T01:01:19;-20119.88;;;22.97;100.00
7058;BME280;3570;43.080;25.628;2022-08-25T01:04:03;-20124.34;;;23.12;100.00
7058;BME280;3570;43.080;25.628;2022-08-25T01:06:48;-20125.06;;;23.15;100.00
7058;BME280;3570;43.080;25.628;2022-08-25T01:09:34;-20126.53;;;23.20;100.00
7058;BME280;3570;43.080;25.628;2022-08-25T01:12:18;-20120.59;;;22.99;100.00
7058;BME280;3570;43.080;25.628;2022-08-25T01:15:04;-20116.41;;;22.85;100.00
7058;BME280;3570;43.080;25.628;2022-08-25T01:17:52;-20119.44;;;22.95;100.00
7058;BME280;3570;43.080;25.628;2022-08-25T01:20:37;-20112.50;;;22.71;100.00
7058;BME280;3570;43.080;25.628;2022-08-25T01:23:22;-20111.47;;;22.68;100.00
7058;BME280;3570;43.080;25.628;2022-08-25T01:26:14;-20112.19;;;22.70;100.00
7058;BME280;3570;43.080;25.628;2022-08-25T01:29:01;-20113.78;;;22.76;100.00
7058;BME280;3570;43.080;25.628;2022-08-25T01:32:08;-20111.19;;;22.67;100.00
7058;BME280;3570;43.080;25.628;2022-08-25T01:34:52;-20108.31;;;22.57;100.00
7058;BME280;3570;43.080;25.628;2022-08-25T01:37:37;-20113.50;;;22.75;100.00
7058;BME280;3570;43.080;25.628;2022-08-25T01:40:21;-20117.41;;;22.88;100.00
7058;BME280;3570;43.080;25.628;2022-08-25T01:45:49;-20112.34;;;22.71;100.00
7058;BME280;3570;43.080;25.628;2022-08-25T01:48:34;-20114.53;;;22.78;100.00
7058;BME280;3570;43.080;25.628;2022-08-25T01:51:20;-20112.06;;;22.70;100.00
7058;BME280;3570;43.080;25.628;2022-08-25T01:54:06;-20113.22;;;22.74;100.00
7058;BME280;3570;43.080;25.628;2022-08-25T01:56:51;-20103.38;;;22.39;100.00
7058;BME280;3570;43.080;25.628;2022-08-25T01:59:35;-20104.81;;;22.44;100.00
7058;BME280;3570;43.080;25.628;2022-08-25T02:02:18;-20104.53;;;22.43;100.00
7058;BME280;3570;43.080;25.628;2022-08-25T02:05:03;-20103.94;;;22.41;100.00
7058;BME280;3570;43.080;25.628;2022-08-25T02:07:47;-20107.00;;;22.52;100.00
7058;BME280;3570;43.080;25.628;2022-08-25T02:10:31;-20099.19;;;22.25;100.00
7058;BME280;3570;43.080;25.628;2022-08-25T02:13:17;-20088.47;;;21.88;100.00
7058;BME280;3570;43.080;25.628;2022-08-25T02:16:01;-20076.47;;;21.46;100.00
7058;BME280;3570;43.080;25.628;2022-08-25T02:18:46;-20063.28;;;21.00;100.00
7058;BME280;3570;43.080;25.628;2022-08-25T02:21:30;-20067.19;;;21.14;100.00
7058;BME280;3570;43.080;25.628;2022-08-25T02:24:15;-20067.47;;;21.15;100.00
7058;BME280;3570;43.080;25.628;2022-08-25T02:26:59;-20066.75;;;21.12;100.00
7058;BME280;3570;43.080;25.628;2022-08-25T02:29:44;-20067.91;;;21.16;100.00
7058;BME280;3570;43.080;25.628;2022-08-25T02:32:28;-20063.41;;;21.01;100.00
7058;BME280;3570;43.080;25.628;2022-08-25T02:35:12;-20067.19;;;21.14;100.00
7058;BME280;3570;43.080;25.628;2022-08-25T02:37:57;-20060.66;;;20.91;100.00
7058;BME280;3570;43.080;25.628;2022-08-25T02:40:41;-20053.72;;;20.67;100.00
7058;BME280;3570;43.080;25.628;2022-08-25T02:43:25;-20063.41;;;21.01;100.00
7058;BME280;3570;43.080;25.628;2022-08-25T02:46:10;-20060.97;;;20.92;100.00
7058;BME280;3570;43.080;25.628;2022-08-25T02:48:54;-20066.19;;;21.10;100.00
7058;BME280;3570;43.080;25.628;2022-08-25T02:51:38;-20060.81;;;20.92;100.00
7058;BME280;3570;43.080;25.628;2022-08-25T02:54:22;-20067.63;;;21.15;100.00
7058;BME280;3570;43.080;25.628;2022-08-25T02:57:06;-20062.13;;;20.96;100.00
7058;BME280;3570;43.080;25.628;2022-08-25T02:59:51;-20059.66;;;20.88;100.00
7058;BME280;3570;43.080;25.628;2022-08-25T03:02:35;-20050.81;;;20.57;100.00
7058;BME280;3570;43.080;25.628;2022-08-25T03:05:19;-20054.72;;;20.71;100.00
7058;BME280;3570;43.080;25.628;2022-08-25T03:08:04;-20047.91;;;20.47;100.00
7058;BME280;3570;43.080;25.628;2022-08-25T03:10:50;-20049.66;;;20.53;100.00
7058;BME280;3570;43.080;25.628;2022-08-25T03:13:34;-20044.16;;;20.34;100.00
7058;BME280;3570;43.080;25.628;2022-08-25T03:16:19;-20047.91;;;20.47;100.00
7058;BME280;3570;43.080;25.628;2022-08-25T03:19:03;-20053.13;;;20.65;100.00
7058;BME280;3570;43.080;25.628;2022-08-25T03:21:47;-20053.84;;;20.68;100.00
7058;BME280;3570;43.080;25.628;2022-08-25T03:24:33;-20061.09;;;20.93;100.00
7058;BME280;3570;43.080;25.628;2022-08-25T03:27:17;-20057.19;;;20.79;100.00
7058;BME280;3570;43.080;25.628;2022-08-25T03:30:01;-20077.47;;;21.49;100.00
7058;BME280;3570;43.080;25.628;2022-08-25T03:32:46;-20086.75;;;21.82;100.00
7058;BME280;3570;43.080;25.628;2022-08-25T03:35:30;-20094.84;;;22.10;100.00
7058;BME280;3570;43.080;25.628;2022-08-25T03:38:14;-20099.19;;;22.25;100.00
7058;BME280;3570;43.080;25.628;2022-08-25T03:40:59;-20101.78;;;22.34;100.00
7058;BME280;3570;43.080;25.628;2022-08-25T03:43:44;-20111.03;;;22.66;100.00
7058;BME280;3570;43.080;25.628;2022-08-25T03:46:34;-20109.03;;;22.59;100.00
7058;BME280;3570;43.080;25.628;2022-08-25T03:49:22;-20116.41;;;22.85;100.00
7058;BME280;3570;43.080;25.628;2022-08-25T03:52:06;-20109.31;;;22.60;100.00
7058;BME280;3570;43.080;25.628;2022-08-25T03:54:51;-20113.94;;;22.76;100.00
7058;BME280;3570;43.080;25.628;2022-08-25T03:57:35;-20115.69;;;22.82;100.00
7058;BME280;3570;43.080;25.628;2022-08-25T04:00:22;-20112.78;;;22.72;100.00
7058;BME280;3570;43.080;25.628;2022-08-25T04:03:06;-20115.38;;;22.81;100.00
7058;BME280;3570;43.080;25.628;2022-08-25T04:05:50;-20123.03;;;23.08;100.00
7058;BME280;3570;43.080;25.628;2022-08-25T04:08:35;-20126.81;;;23.21;100.00
7058;BME280;3570;43.080;25.628;2022-08-25T04:11:21;-20128.41;;;23.26;100.00
7058;BME280;3570;43.080;25.628;2022-08-25T04:14:05;-20131.44;;;23.37;100.00
7058;BME280;3570;43.080;25.628;2022-08-25T04:16:50;-20123.47;;;23.09;100.00
7058;BME280;3570;43.080;25.628;2022-08-25T04:19:35;-20126.38;;;23.19;100.00
7058;BME280;3570;43.080;25.628;2022-08-25T04:22:19;-20120.72;;;23.00;100.00
7058;BME280;3570;43.080;25.628;2022-08-25T04:25:05;-20133.31;;;23.44;100.00
7058;BME280;3570;43.080;25.628;2022-08-25T04:27:49;-20127.97;;;23.25;100.00
7058;BME280;3570;43.080;25.628;2022-08-25T04:30:33;-20134.19;;;23.47;100.00
7058;BME280;3570;43.080;25.628;2022-08-25T04:33:17;-20139.09;;;23.64;100.00
7058;BME280;3570;43.080;25.628;2022-08-25T04:36:03;-20139.81;;;23.66;100.00
7058;BME280;3570;43.080;25.628;2022-08-25T04:38:48;-20143.00;;;23.77;100.00
7058;BME280;3570;43.080;25.628;2022-08-25T04:41:33;-20142.28;;;23.75;100.00
7058;BME280;3570;43.080;25.628;2022-08-25T04:44:17;-20141.25;;;23.71;100.00
7058;BME280;3570;43.080;25.628;2022-08-25T04:47:01;-20144.88;;;23.84;100.00
7058;BME280;3570;43.080;25.628;2022-08-25T04:49:46;-20147.47;;;23.93;100.00
7058;BME280;3570;43.080;25.628;2022-08-25T04:52:30;-20147.47;;;23.93;100.00
7058;BME280;3570;43.080;25.628;2022-08-25T04:55:14;-20145.75;;;23.87;100.00
7058;BME280;3570;43.080;25.628;2022-08-25T04:57:58;-20141.25;;;23.71;100.00
7058;BME280;3570;43.080;25.628;2022-08-25T05:00:42;-20140.25;;;23.68;100.00
7058;BME280;3570;43.080;25.628;2022-08-25T05:03:26;-20134.19;;;23.47;100.00
7058;BME280;3570;43.080;25.628;2022-08-25T05:06:10;-20131.56;;;23.38;100.00
7058;BME280;3570;43.080;25.628;2022-08-25T05:08:56;-20118.13;;;22.91;100.00
7058;BME280;3570;43.080;25.628;2022-08-25T05:11:41;-20110.47;;;22.64;100.00
7058;BME280;3570;43.080;25.628;2022-08-25T05:14:24;-20103.94;;;22.41;100.00
7058;BME280;3570;43.080;25.628;2022-08-25T05:17:08;-20097.59;;;22.19;100.00
7058;BME280;3570;43.080;25.628;2022-08-25T05:19:53;-20096.28;;;22.15;100.00
7058;BME280;3570;43.080;25.628;2022-08-25T05:22:37;-20102.22;;;22.35;100.00
7058;BME280;3570;43.080;25.628;2022-08-25T05:25:21;-20106.69;;;22.51;100.00
7058;BME280;3570;43.080;25.628;2022-08-25T05:28:05;-20110.91;;;22.66;100.00
7058;BME280;3570;43.080;25.628;2022-08-25T05:30:48;-20105.69;;;22.48;100.00
7058;BME280;3570;43.080;25.628;2022-08-25T05:33:33;-20111.91;;;22.69;100.00
7058;BME280;3570;43.080;25.628;2022-08-25T05:36:19;-20109.16;;;22.60;100.00
7058;BME280;3570;43.080;25.628;2022-08-25T05:39:03;-20116.53;;;22.85;100.00
7058;BME280;3570;43.080;25.628;2022-08-25T05:41:47;-20114.53;;;22.78;100.00
7058;BME280;3570;43.080;25.628;2022-08-25T05:44:31;-20114.09;;;22.77;100.00
7058;BME280;3570;43.080;25.628;2022-08-25T05:47:15;-20114.53;;;22.78;100.00
7058;BME280;3570;43.080;25.628;2022-08-25T05:49:59;-20116.69;;;22.86;100.00
7058;BME280;3570;43.080;25.628;2022-08-25T05:52:44;-20114.81;;;22.79;100.00
7058;BME280;3570;43.080;25.628;2022-08-25T05:55:28;-20111.03;;;22.66;100.00
7058;BME280;3570;43.080;25.628;2022-08-25T05:58:12;-20109.47;;;22.61;100.00
7058;BME280;3570;43.080;25.628;2022-08-25T06:00:57;-20113.66;;;22.75;100.00
7058;BME280;3570;43.080;25.628;2022-08-25T06:04:02;-20116.81;;;22.86;100.00
7058;BME280;3570;43.080;25.628;2022-08-25T06:06:46;-20116.53;;;22.85;100.00
7058;BME280;3570;43.080;25.628;2022-08-25T06:09:31;-20122.31;;;23.05;100.00
7058;BME280;3570;43.080;25.628;2022-08-25T06:12:16;-20123.47;;;23.09;100.00
7058;BME280;3570;43.080;25.628;2022-08-25T06:15:01;-20119.88;;;22.97;100.00
7058;BME280;3570;43.080;25.628;2022-08-25T06:17:47;-20125.06;;;23.15;100.00
7058;BME280;3570;43.080;25.628;2022-08-25T06:20:31;-20126.38;;;23.19;100.00
7058;BME280;3570;43.080;25.628;2022-08-25T06:23:15;-20133.03;;;23.43;100.00
7058;BME280;3570;43.080;25.628;2022-08-25T06:26:01;-20141.41;;;23.72;100.00
7058;BME280;3570;43.080;25.628;2022-08-25T06:28:46;-20144.00;;;23.81;100.00
7058;BME280;3570;43.080;25.628;2022-08-25T06:31:30;-20144.59;;;23.83;100.00
7058;BME280;3570;43.080;25.628;2022-08-25T06:34:15;-20136.34;;;23.54;100.00
7058;BME280;3570;43.080;25.628;2022-08-25T06:36:59;-20144.00;;;23.81;100.00
7058;BME280;3570;43.080;25.628;2022-08-25T06:39:44;-20151.66;;;24.07;100.00
7058;BME280;3570;43.080;25.628;2022-08-25T06:42:27;-20154.13;;;24.16;100.00
7058;BME280;3570;43.080;25.628;2022-08-25T06:45:11;-20171.75;;;24.77;100.00
7058;BME280;3570;43.080;25.628;2022-08-25T06:47:56;-20166.38;;;24.59;100.00
7058;BME280;3570;43.080;25.628;2022-08-25T06:50:42;-20160.63;;;24.39;100.00
7058;BME280;3570;43.080;25.628;2022-08-25T06:53:27;-20172.88;;;24.81;100.00
7058;BME280;3570;43.080;25.628;2022-08-25T06:56:11;-20177.78;;;24.98;100.00
7058;BME280;3570;43.080;25.628;2022-08-25T06:58:55;-20181.84;;;25.12;100.00
7058;BME280;3570;43.080;25.628;2022-08-25T07:01:39;-20180.69;;;25.08;100.00
7058;BME280;3570;43.080;25.628;2022-08-25T07:04:23;-20190.66;;;25.43;100.00
7058;BME280;3570;43.080;25.628;2022-08-25T07:07:07;-20195.97;;;25.62;100.00
7058;BME280;3570;43.080;25.628;2022-08-25T07:09:51;-20192.66;;;25.50;100.00
7058;BME280;3570;43.080;25.628;2022-08-25T07:12:35;-20184.72;;;25.23;100.00
7058;BME280;3570;43.080;25.628;2022-08-25T07:15:19;-20190.50;;;25.43;100.00
7058;BME280;3570;43.080;25.628;2022-08-25T07:18:03;-20207.81;;;26.03;100.00
7058;BME280;3570;43.080;25.628;2022-08-25T07:20:47;-20206.50;;;25.98;100.00
7058;BME280;3570;43.080;25.628;2022-08-25T07:23:31;-20203.19;;;25.87;100.00
7058;BME280;3570;43.080;25.628;2022-08-25T07:26:21;-20185.31;;;25.25;100.00
7058;BME280;3570;43.080;25.628;2022-08-25T07:29:10;-20178.09;;;24.99;100.00
7058;BME280;3570;43.080;25.628;2022-08-25T07:31:55;-20187.75;;;25.33;100.00
7058;BME280;3570;43.080;25.628;2022-08-25T07:34:39;-20202.19;;;25.83;100.00
7058;BME280;3570;43.080;25.628;2022-08-25T07:37:44;-20219.91;;;26.45;100.00
7058;BME280;3570;43.080;25.628;2022-08-25T07:40:31;-20222.22;;;26.53;100.00
7058;BME280;3570;43.080;25.628;2022-08-25T07:43:16;-20219.34;;;26.43;100.00
7058;BME280;3570;43.080;25.628;2022-08-25T07:46:00;-20216.16;;;26.32;100.00
7058;BME280;3570;43.080;25.628;2022-08-25T07:48:48;-20212.56;;;26.20;100.00
7058;BME280;3570;43.080;25.628;2022-08-25T07:51:33;-20209.69;;;26.10;100.00
7058;BME280;3570;43.080;25.628;2022-08-25T07:54:17;-20210.13;;;26.11;100.00
7058;BME280;3570;43.080;25.628;2022-08-25T07:57:03;-20206.06;;;25.97;100.00
7058;BME280;3570;43.080;25.628;2022-08-25T07:59:47;-20196.13;;;25.62;100.00
7058;BME280;3570;43.080;25.628;2022-08-25T08:02:31;-20195.97;;;25.62;100.00
7058;BME280;3570;43.080;25.628;2022-08-25T08:05:14;-20206.34;;;25.98;100.00
7058;BME280;3570;43.080;25.628;2022-08-25T08:07:59;-20195.97;;;25.62;100.00
7058;BME280;3570;43.080;25.628;2022-08-25T08:10:43;-20198.88;;;25.72;100.00
7058;BME280;3570;43.080;25.628;2022-08-25T08:13:27;-20202.63;;;25.85;100.00
7058;BME280;3570;43.080;25.628;2022-08-25T08:16:13;-20210.41;;;26.12;100.00
7058;BME280;3570;43.080;25.628;2022-08-25T08:18:58;-20220.91;;;26.49;100.00
7058;BME280;3570;43.080;25.628;2022-08-25T08:21:42;-20223.66;;;26.58;100.00
7058;BME280;3570;43.080;25.628;2022-08-25T08:24:28;-20219.34;;;26.43;100.00
7058;BME280;3570;43.080;25.628;2022-08-25T08:27:13;-20225.81;;;26.66;100.00
7058;BME280;3570;43.080;25.628;2022-08-25T08:29:57;-20226.53;;;26.68;100.00
7058;BME280;3570;43.080;25.628;2022-08-25T08:32:41;-20211.56;;;26.16;100.00
7058;BME280;3570;43.080;25.628;2022-08-25T08:35:26;-20212.69;;;26.20;100.00
7058;BME280;3570;43.080;25.628;2022-08-25T08:38:10;-20206.94;;;26.00;100.00
7058;BME280;3570;43.080;25.628;2022-08-25T08:44:48;-20212.69;;;26.20;100.00
7058;BME280;3570;43.080;25.628;2022-08-25T08:47:39;-20220.19;;;26.46;100.00
7058;BME280;3570;43.080;25.628;2022-08-25T08:53:58;-20221.94;;;26.52;100.00
7058;BME280;3570;43.080;25.628;2022-08-25T08:56:49;-20220.19;;;26.46;100.00
7058;BME280;3570;43.080;25.628;2022-08-25T08:59:48;-20235.47;;;26.99;100.00
7058;BME280;3570;43.080;25.628;2022-08-25T09:02:39;-20238.06;;;27.09;100.00
7058;BME280;3570;43.080;25.628;2022-08-25T09:05:28;-20246.41;;;27.38;100.00
7058;BME280;3570;43.080;25.628;2022-08-25T09:08:14;-20269.59;;;28.19;100.00
7058;BME280;3570;43.080;25.628;2022-08-25T09:32:44;-20440.25;;;34.17;56.91
7058;BME280;3570;43.080;25.628;2022-08-25T09:35:32;-20411.50;;;33.16;57.00
7058;BME280;3570;43.080;25.628;2022-08-25T09:38:17;-20400.47;;;32.77;56.72
7058;BME280;3570;43.080;25.628;2022-08-25T09:41:03;-20373.84;;;31.84;60.75
7058;BME280;3570;43.080;25.628;2022-08-25T09:43:53;-20392.59;;;32.50;56.39
7058;BME280;3570;43.080;25.628;2022-08-25T09:46:37;-20381.16;;;32.09;58.88
7058;BME280;3570;43.080;25.628;2022-08-25T09:49:30;-20340.28;;;30.66;62.01
7058;BME280;3570;43.080;25.628;2022-08-25T09:57:57;-20421.09;;;33.50;53.20
7058;BME280;3570;43.080;25.628;2022-08-25T10:00:41;-20447.66;;;34.43;52.05
7058;BME280;3570;43.080;25.628;2022-08-25T10:03:26;-20465.25;;;35.05;52.58
7058;BME280;3570;43.080;25.628;2022-08-25T10:06:13;-20498.06;;;36.21;47.42
7058;BME280;3570;43.080;25.628;2022-08-25T10:09:02;-20531.41;;;37.38;43.24
7058;BME280;3570;43.080;25.628;2022-08-25T10:11:46;-20537.53;;;37.60;41.07
7058;BME280;3570;43.080;25.628;2022-08-25T10:14:36;-20492.50;;;36.01;43.50
7058;BME280;3570;43.080;25.628;2022-08-25T10:17:29;-20498.34;;;36.22;45.78
7058;BME280;3570;43.080;25.628;2022-08-25T10:20:26;-20521.16;;;37.02;43.22
7058;BME280;3570;43.080;25.628;2022-08-25T10:23:13;-20531.97;;;37.40;42.94
7058;BME280;3570;43.080;25.628;2022-08-25T10:26:08;-20544.22;;;37.84;42.28
7058;BME280;3570;43.080;25.628;2022-08-25T10:40:46;-20552.75;;;38.14;37.71
7058;BME280;3570;43.080;25.628;2022-08-25T10:43:41;-20572.09;;;38.82;37.16
7058;BME280;3570;43.080;25.628;2022-08-25T10:46:35;-20574.38;;;38.90;37.09
7058;BME280;3570;43.080;25.628;2022-08-25T10:50:00;-20582.63;;;39.19;36.22
7058;BME280;3570;43.080;25.628;2022-08-25T10:56:01;-20474.25;;;35.37;42.30
7058;BME280;3570;43.080;25.628;2022-08-25T11:02:42;-20554.47;;;38.20;38.39
7058;BME280;3570;43.080;25.628;2022-08-25T11:11:31;-20598.38;;;39.75;35.69
7058;BME280;3570;43.080;25.628;2022-08-25T11:14:36;-20605.91;;;40.02;34.85
7058;BME280;3570;43.080;25.628;2022-08-25T11:17:23;-20589.16;;;39.42;35.21
7058;BME280;3570;43.080;25.628;2022-08-25T11:20:16;-20600.78;;;39.84;36.32
7058;BME280;3570;43.080;25.628;2022-08-25T11:23:24;-20608.47;;;40.11;35.36
7058;BME280;3570;43.080;25.628;2022-08-25T11:26:13;-20603.94;;;39.95;34.23
7058;BME280;3570;43.080;25.628;2022-08-25T11:31:51;-20598.38;;;39.75;35.69
7058;BME280;3570;43.080;25.628;2022-08-25T11:34:36;-20600.38;;;39.82;34.05
7058;BME280;3570;43.080;25.628;2022-08-25T11:37:24;-20605.34;;;40.00;34.04
7058;BME280;3570;43.080;25.628;2022-08-25T12:07:23;-20656.94;;;41.83;31.02
7058;BME280;3570;43.080;25.628;2022-08-25T12:10:10;-20660.19;;;41.94;30.61
7058;BME280;3570;43.080;25.628;2022-08-25T12:12:59;-20668.28;;;42.23;30.02
7058;BME280;3570;43.080;25.628;2022-08-25T12:21:15;-20611.31;;;40.21;30.92
7058;BME280;3570;43.080;25.628;2022-08-25T12:24:13;-20596.09;;;39.67;32.92
7058;BME280;3570;43.080;25.628;2022-08-25T12:27:00;-20621.66;;;40.58;31.68
7058;BME280;3570;43.080;25.628;2022-08-25T12:36:07;-20559.31;;;38.37;33.23
7058;BME280;3570;43.080;25.628;2022-08-25T12:38:52;-20591.44;;;39.51;33.41
7058;BME280;3570;43.080;25.628;2022-08-25T12:41:57;-20620.94;;;40.55;32.74
7058;BME280;3570;43.080;25.628;2022-08-25T12:44:44;-20626.91;;;40.76;30.89
7058;BME280;3570;43.080;25.628;2022-08-25T12:47:32;-20630.88;;;40.90;30.47
7058;BME280;3570;43.080;25.628;2022-08-25T12:50:37;-20637.97;;;41.15;30.45
7058;BME280;3570;43.080;25.628;2022-08-25T12:56:36;-20600.22;;;39.82;30.90
7058;BME280;3570;43.080;25.628;2022-08-25T13:02:41;-20686.09;;;42.86;27.28
7058;BME280;3570;43.080;25.628;2022-08-25T13:11:40;-20671.09;;;42.33;26.96
7058;BME280;3570;43.080;25.628;2022-08-25T13:14:33;-20656.09;;;41.80;26.80
7058;BME280;3570;43.080;25.628;2022-08-25T13:17:32;-20639.81;;;41.22;28.04
7058;BME280;3570;43.080;25.628;2022-08-25T13:20:24;-20670.13;;;42.30;28.03
7058;BME280;3570;43.080;25.628;2022-08-25T13:23:09;-20704.75;;;43.53;25.84
7058;BME280;3570;43.080;25.628;2022-08-25T13:25:54;-20714.22;;;43.86;23.72
7058;BME280;3570;43.080;25.628;2022-08-25T13:28:39;-20700.66;;;43.38;25.99
7058;BME280;3570;43.080;25.628;2022-08-25T13:31:25;-20700.09;;;43.36;24.66
7058;BME280;3570;43.080;25.628;2022-08-25T13:34:17;-20697.97;;;43.29;24.80
7058;BME280;3570;43.080;25.628;2022-08-25T13:37:30;-20728.19;;;44.36;23.70
7058;BME280;3570;43.080;25.628;2022-08-25T13:43:05;-20647.75;;;41.50;26.20
7058;BME280;3570;43.080;25.628;2022-08-25T13:45:50;-20635.13;;;41.05;26.32
7058;BME280;3570;43.080;25.628;2022-08-25T13:48:36;-20624.06;;;40.66;27.22
7058;BME280;3570;43.080;25.628;2022-08-25T13:51:22;-20600.09;;;39.81;27.87
7058;BME280;3570;43.080;25.628;2022-08-25T13:54:19;-20626.47;;;40.75;26.57
7058;BME280;3570;43.080;25.628;2022-08-25T13:57:17;-20676.47;;;42.52;25.09
7058;BME280;3570;43.080;25.628;2022-08-25T14:00:06;-20704.34;;;43.51;24.42
7058;BME280;3570;43.080;25.628;2022-08-25T14:02:53;-20688.66;;;42.95;24.28
7058;BME280;3570;43.080;25.628;2022-08-25T14:05:42;-20725.09;;;44.25;22.92
7058;BME280;3570;43.080;25.628;2022-08-25T14:08:31;-20726.78;;;44.31;23.04
7058;BME280;3570;43.080;25.628;2022-08-25T14:14:29;-20718.88;;;44.03;23.22
7058;BME280;3570;43.080;25.628;2022-08-25T14:17:16;-20692.31;;;43.09;22.92
7058;BME280;3570;43.080;25.628;2022-08-25T14:20:01;-20706.75;;;43.60;23.07
7058;BME280;3570;43.080;25.628;2022-08-25T14:22:45;-20712.53;;;43.80;22.72
7058;BME280;3570;43.080;25.628;2022-08-25T14:25:30;-20731.03;;;44.46;21.63
7058;BME280;3570;43.080;25.628;2022-08-25T14:28:18;-20642.22;;;41.31;24.42
7058;BME280;3570;43.080;25.628;2022-08-25T14:31:10;-20660.47;;;41.95;22.95
7058;BME280;3570;43.080;25.628;2022-08-25T14:34:09;-20670.81;;;42.32;22.96
7058;BME280;3570;43.080;25.628;2022-08-25T14:36:55;-20673.66;;;42.42;23.19
7058;BME280;3570;43.080;25.628;2022-08-25T14:39:40;-20694.00;;;43.15;22.18
7058;BME280;3570;43.080;25.628;2022-08-25T14:42:24;-20702.06;;;43.43;22.79
7058;BME280;3570;43.080;25.628;2022-08-25T14:45:09;-20682.69;;;42.74;22.70
7058;BME280;3570;43.080;25.628;2022-08-25T14:47:54;-20681.56;;;42.70;23.01
7058;BME280;3570;43.080;25.628;2022-08-25T14:50:39;-20686.25;;;42.87;23.61
7058;BME280;3570;43.080;25.628;2022-08-25T14:53:25;-20700.22;;;43.37;21.69
7058;BME280;3570;43.080;25.628;2022-08-25T14:56:09;-20712.25;;;43.79;22.66
7058;BME280;3570;43.080;25.628;2022-08-25T14:58:54;-20705.88;;;43.57;21.26
7058;BME280;3570;43.080;25.628;2022-08-25T15:01:38;-20670.81;;;42.32;22.10
7058;BME280;3570;43.080;25.628;2022-08-25T15:04:26;-20678.59;;;42.60;22.45
7058;BME280;3570;43.080;25.628;2022-08-25T15:07:11;-20683.84;;;42.78;22.48
7058;BME280;3570;43.080;25.628;2022-08-25T15:10:27;-20662.19;;;42.01;22.87
7058;BME280;3570;43.080;25.628;2022-08-25T15:13:12;-20671.38;;;42.34;23.13
7058;BME280;3570;43.080;25.628;2022-08-25T15:15:56;-20667.56;;;42.21;22.66
7058;BME280;3570;43.080;25.628;2022-08-25T15:18:41;-20648.31;;;41.52;23.33
7058;BME280;3570;43.080;25.628;2022-08-25T15:21:26;-20652.97;;;41.69;24.48
7058;BME280;3570;43.080;25.628;2022-08-25T15:24:12;-20650.00;;;41.58;23.26
7058;BME280;3570;43.080;25.628;2022-08-25T15:26:58;-20664.88;;;42.11;23.08
7058;BME280;3570;43.080;25.628;2022-08-25T15:29:43;-20668.69;;;42.25;23.00
7058;BME280;3570;43.080;25.628;2022-08-25T15:32:27;-20635.69;;;41.07;23.67
7058;BME280;3570;43.080;25.628;2022-08-25T15:35:11;-20615.28;;;40.35;24.66
7058;BME280;3570;43.080;25.628;2022-08-25T15:37:56;-20610.03;;;40.16;24.76
7058;BME280;3570;43.080;25.628;2022-08-25T15:40:40;-20608.47;;;40.11;24.68
7058;BME280;3570;43.080;25.628;2022-08-25T15:43:24;-20600.09;;;39.81;24.70
7058;BME280;3570;43.080;25.628;2022-08-25T15:46:10;-20576.09;;;38.96;27.18
7058;BME280;3570;43.080;25.628;2022-08-25T15:48:57;-20557.03;;;38.29;26.36
7058;BME280;3570;43.080;25.628;2022-08-25T15:51:42;-20563.56;;;38.52;26.29
7058;BME280;3570;43.080;25.628;2022-08-25T15:54:28;-20556.47;;;38.27;26.73
7058;BME280;3570;43.080;25.628;2022-08-25T15:57:12;-20558.03;;;38.32;26.62
7058;BME280;3570;43.080;25.628;2022-08-25T15:59:56;-20553.91;;;38.18;27.22
7058;BME280;3570;43.080;25.628;2022-08-25T16:02:40;-20552.34;;;38.12;26.62
7058;BME280;3570;43.080;25.628;2022-08-25T16:05:24;-20532.84;;;37.43;27.42
7058;BME280;3570;43.080;25.628;2022-08-25T16:08:08;-20507.19;;;36.53;29.17
7058;BME280;3570;43.080;25.628;2022-08-25T16:10:53;-20472.66;;;35.31;30.81
7058;BME280;3570;43.080;25.628;2022-08-25T16:13:37;-20452.97;;;34.62;30.99
7058;BME280;3570;43.080;25.628;2022-08-25T16:16:23;-20436.09;;;34.02;32.76
7058;BME280;3570;43.080;25.628;2022-08-25T16:19:08;-20423.38;;;33.58;33.64
7058;BME280;3570;43.080;25.628;2022-08-25T16:21:51;-20411.50;;;33.16;34.72
7058;BME280;3570;43.080;25.628;2022-08-25T16:24:40;-20401.75;;;32.82;34.84
7058;BME280;3570;43.080;25.628;2022-08-25T16:27:27;-20389.44;;;32.38;35.30
7058;BME280;3570;43.080;25.628;2022-08-25T16:30:12;-20384.56;;;32.21;35.77
7058;BME280;3570;43.080;25.628;2022-08-25T16:32:56;-20373.53;;;31.83;36.39
7058;BME280;3570;43.080;25.628;2022-08-25T16:35:41;-20372.53;;;31.79;36.75